Time;durP1;ratioP1;P1;durP2;ratioP2;P2;SDS_P1;SDS_P2;PMS_P1;PMS_P2;Temp;Humidity;BMP_temperature;BMP_pressure;BME280_temperature;BME280_humidity;BME280_pressure;Samples;Min_cycle;Max_cycle;Signal;HPM_P1;HPM_P2
2022/05/05 00:02:07;;;;;;;14.50;11.60;;;;;;;9.09;73.66;99548.32;103542;1302;22500;-25
2022/05/05 00:04:36;;;;;;;18.60;11.30;;;;;;;9.05;73.76;99546.86;103531;1303;24211;-24
2022/05/05 00:07:05;;;;;;;14.90;10.40;;;;;;;9.02;74.31;99549.38;103568;1303;25216;-24
2022/05/05 00:09:34;;;;;;;14.00;10.50;;;;;;;9.04;74.61;99552.16;103488;1303;23536;-24
2022/05/05 00:14:37;;;;;;;11.20;9.10;;;;;;;9.07;74.02;99550.86;103589;1303;24230;-28
2022/05/05 00:17:07;;;;;;;19.50;11.30;;;;;;;9.08;74.20;99550.98;103539;1303;23918;-25
2022/05/05 00:19:38;;;;;;;15.90;11.10;;;;;;;9.09;73.74;99551.85;103555;1303;25347;-25
2022/05/05 00:22:07;;;;;;;16.40;10.40;;;;;;;9.09;73.56;99552.91;103590;1303;25038;-28
2022/05/05 00:24:38;;;;;;;21.00;11.10;;;;;;;9.09;74.15;99553.81;103621;1303;24413;-24
2022/05/05 00:27:07;;;;;;;15.30;11.60;;;;;;;9.13;73.60;99553.21;103547;1303;25105;-28
2022/05/05 00:29:36;;;;;;;16.90;11.10;;;;;;;9.15;73.36;99551.39;103577;1303;23820;-25
2022/05/05 00:32:06;;;;;;;12.20;8.90;;;;;;;9.16;73.34;99549.29;103543;1302;22488;-28
2022/05/05 00:34:35;;;;;;;11.20;9.30;;;;;;;9.15;73.81;99548.54;103532;1303;23631;-25
2022/05/05 00:37:04;;;;;;;13.10;9.90;;;;;;;9.12;73.89;99550.60;103558;1303;24320;-29
2022/05/05 00:39:33;;;;;;;14.40;10.10;;;;;;;9.11;73.66;99547.70;103602;1303;24990;-25
2022/05/05 00:42:02;;;;;;;16.30;10.70;;;;;;;9.10;73.44;99545.91;103493;1303;22496;-28
2022/05/05 00:44:31;;;;;;;22.70;10.50;;;;;;;9.08;73.64;99548.27;103583;1303;22495;-29
2022/05/05 00:47:00;;;;;;;18.90;10.60;;;;;;;9.05;73.57;99546.49;103545;1303;23982;-29
2022/05/05 00:49:29;;;;;;;14.90;10.10;;;;;;;9.02;73.33;99544.75;103361;1303;23499;-25
2022/05/05 00:51:59;;;;;;;12.20;8.80;;;;;;;8.99;72.97;99545.65;103562;1303;23592;-29
2022/05/05 00:54:28;;;;;;;18.90;12.00;;;;;;;8.94;73.07;99543.90;103465;1303;24279;-28
2022/05/05 00:56:58;;;;;;;12.50;8.70;;;;;;;8.91;72.92;99541.81;103548;1303;24242;-27
2022/05/05 00:59:27;;;;;;;11.20;9.00;;;;;;;8.86;73.32;99544.69;103625;1303;22506;-25
2022/05/05 01:01:56;;;;;;;12.30;9.10;;;;;;;8.83;73.44;99546.27;103561;1303;23653;-28
2022/05/05 01:04:25;;;;;;;14.40;10.10;;;;;;;8.81;73.03;99545.61;103579;1303;24996;-29
2022/05/05 01:06:54;;;;;;;23.70;10.30;;;;;;;8.79;72.78;99546.59;103584;1303;25011;-30
2022/05/05 01:09:23;;;;;;;15.50;9.50;;;;;;;8.76;72.51;99548.75;103551;1303;23870;-30
2022/05/05 01:11:52;;;;;;;15.40;9.00;;;;;;;8.70;72.35;99544.38;103496;1303;22792;-28
2022/05/05 01:14:21;;;;;;;15.10;9.10;;;;;;;8.64;72.59;99545.63;103569;1302;23944;-28
2022/05/05 01:16:50;;;;;;;15.00;10.20;;;;;;;8.59;72.40;99546.21;103589;1302;23733;-25
2022/05/05 01:19:19;;;;;;;11.60;9.40;;;;;;;8.53;72.54;99542.61;103356;1303;24319;-24
2022/05/05 01:21:52;;;;;;;15.00;9.60;;;;;;;8.48;72.46;99543.30;103600;1303;24305;-27
2022/05/05 01:28:10;;;;;;;18.20;10.90;;;;;;;8.43;72.55;99546.34;103539;1303;22882;-31
2022/05/05 01:29:43;;;;;;;15.60;9.60;;;;;;;8.34;73.10;99550.92;103533;1303;23776;-29
2022/05/05 01:32:12;;;;;;;13.30;8.80;;;;;;;8.32;73.18;99551.84;103559;1303;23909;-27
2022/05/05 01:34:41;;;;;;;15.30;9.60;;;;;;;8.32;73.06;99549.54;103528;1303;22604;-25
2022/05/05 01:37:10;;;;;;;20.50;9.90;;;;;;;8.33;73.26;99548.69;103559;1303;24218;-25
2022/05/05 01:39:39;;;;;;;15.60;10.70;;;;;;;8.32;73.30;99550.44;103536;1303;23942;-24
2022/05/05 01:42:08;;;;;;;11.70;9.20;;;;;;;8.31;73.24;99551.82;103578;1303;23799;-25
2022/05/05 01:44:37;;;;;;;15.00;10.10;;;;;;;8.29;72.97;99550.80;103548;1303;22783;-25
2022/05/05 01:47:06;;;;;;;18.10;11.30;;;;;;;8.26;73.19;99551.78;103562;1303;22761;-25
2022/05/05 01:49:35;;;;;;;12.30;9.40;;;;;;;8.23;74.03;99554.15;103589;1303;25263;-29
2022/05/05 01:52:08;;;;;;;11.10;9.30;;;;;;;8.18;73.88;99553.94;103585;1303;22854;-28
2022/05/05 01:54:38;;;;;;;11.60;9.00;;;;;;;8.15;73.17;99555.27;103568;1303;23577;-25
2022/05/05 01:57:07;;;;;;;15.60;10.40;;;;;;;8.10;73.95;99551.23;103552;1303;23747;-24
2022/05/05 01:59:36;;;;;;;19.10;9.90;;;;;;;8.06;74.23;99551.71;103602;1303;22505;-28
2022/05/05 02:02:05;;;;;;;12.30;8.50;;;;;;;8.02;74.01;99553.13;103596;1302;23734;-28
2022/05/05 02:04:34;;;;;;;16.30;12.10;;;;;;;7.99;74.56;99554.73;103500;1303;22505;-25
2022/05/05 02:07:03;;;;;;;18.20;10.60;;;;;;;7.93;74.29;99551.89;103577;1303;22554;-28
2022/05/05 02:09:32;;;;;;;16.80;11.90;;;;;;;7.86;74.09;99555.00;103555;1303;25117;-23
2022/05/05 02:12:02;;;;;;;22.90;9.50;;;;;;;7.79;74.37;99557.07;103604;1303;24252;-26
2022/05/05 02:14:31;;;;;;;19.40;10.90;;;;;;;7.73;74.74;99558.23;103598;1302;22610;-29
2022/05/05 02:17:00;;;;;;;23.10;10.90;;;;;;;7.68;74.89;99558.99;103534;1303;22498;-25
2022/05/05 02:19:30;;;;;;;18.30;10.70;;;;;;;7.63;74.93;99556.79;103540;1303;22501;-28
2022/05/05 02:21:59;;;;;;;14.50;10.80;;;;;;;7.54;75.13;99561.16;103498;1303;23023;-28
2022/05/05 02:24:28;;;;;;;19.10;10.10;;;;;;;7.43;75.69;99562.91;103531;1303;24362;-30
2022/05/05 02:26:57;;;;;;;13.60;10.50;;;;;;;7.33;76.52;99562.23;103587;1302;24211;-25
2022/05/05 02:29:26;;;;;;;19.00;11.80;;;;;;;7.23;75.96;99565.27;103579;1303;22502;-28
2022/05/05 02:31:55;;;;;;;22.30;11.10;;;;;;;7.14;75.78;99565.92;103602;1303;23840;-25
2022/05/05 02:34:24;;;;;;;18.10;10.80;;;;;;;7.08;75.18;99565.20;103609;1303;22524;-28
2022/05/05 02:39:25;;;;;;;14.30;9.40;;;;;;;6.92;76.91;99562.65;103570;1303;25117;-25
2022/05/05 02:41:54;;;;;;;15.70;9.60;;;;;;;6.86;77.46;99559.63;103574;1303;22551;-28
2022/05/05 02:44:23;;;;;;;14.30;9.30;;;;;;;6.80;76.49;99559.27;103524;1303;23599;-30
2022/05/05 02:46:52;;;;;;;16.60;10.00;;;;;;;6.73;76.08;99561.87;103609;1303;24218;-28
2022/05/05 02:49:21;;;;;;;15.40;10.40;;;;;;;6.68;75.72;99555.75;103524;1303;23738;-25
2022/05/05 02:51:50;;;;;;;16.50;12.40;;;;;;;6.65;75.78;99555.56;103580;1303;22511;-25
2022/05/05 02:56:52;;;;;;;15.60;12.00;;;;;;;6.61;75.54;99554.55;103523;1303;22510;-25
2022/05/05 02:59:21;;;;;;;17.10;12.70;;;;;;;6.56;75.72;99559.30;103614;1303;24297;-29
2022/05/05 03:01:50;;;;;;;14.90;10.90;;;;;;;6.52;76.06;99556.01;103550;1303;22493;-25
2022/05/05 03:04:18;;;;;;;14.20;9.70;;;;;;;6.50;76.34;99556.91;103590;1303;24375;-25
2022/05/05 03:06:47;;;;;;;12.50;10.50;;;;;;;6.47;78.38;99556.00;103490;1303;24295;-24
2022/05/05 03:09:18;;;;;;;13.60;10.20;;;;;;;6.44;77.59;99557.84;103456;1303;24327;-24
2022/05/05 03:11:47;;;;;;;17.90;11.60;;;;;;;6.40;76.65;99559.51;103589;1302;24666;-25
2022/05/05 03:14:16;;;;;;;19.90;11.30;;;;;;;6.38;77.03;99564.63;103562;1303;22845;-29
2022/05/05 03:16:45;;;;;;;13.50;10.60;;;;;;;6.38;76.79;99562.04;103587;1302;24964;-25
2022/05/05 03:19:14;;;;;;;20.40;10.90;;;;;;;6.36;76.65;99564.60;103576;1303;26128;-27
2022/05/05 03:21:43;;;;;;;15.80;9.40;;;;;;;6.32;77.34;99566.73;103563;1303;23807;-25
2022/05/05 03:24:12;;;;;;;14.70;9.60;;;;;;;6.31;77.45;99566.84;103578;1303;23733;-29
2022/05/05 03:26:41;;;;;;;21.40;10.90;;;;;;;6.34;77.21;99568.50;103537;1303;24307;-24
2022/05/05 03:29:10;;;;;;;10.40;8.40;;;;;;;6.38;77.07;99572.70;103540;1303;23879;-27
2022/05/05 03:31:39;;;;;;;14.50;9.20;;;;;;;6.39;77.24;99574.91;103641;1303;24207;-28
2022/05/05 03:34:09;;;;;;;15.80;11.70;;;;;;;6.40;77.37;99576.21;103536;1303;22510;-28
2022/05/05 03:36:38;;;;;;;14.70;11.00;;;;;;;6.43;77.15;99577.89;103551;1303;26304;-28
2022/05/05 03:39:07;;;;;;;13.40;11.00;;;;;;;6.47;77.14;99578.41;103555;1303;23774;-28
2022/05/05 03:41:36;;;;;;;25.60;12.80;;;;;;;6.52;78.71;99575.75;103461;1303;22505;-25
2022/05/05 03:44:07;;;;;;;13.00;8.70;;;;;;;6.65;77.67;99573.52;103554;1302;24241;-25
2022/05/05 03:46:36;;;;;;;16.10;10.00;;;;;;;6.78;77.02;99576.15;103576;1302;23814;-24
2022/05/05 03:49:05;;;;;;;12.10;8.70;;;;;;;6.95;77.03;99577.52;103516;1303;22624;-29
2022/05/05 03:51:34;;;;;;;16.20;9.50;;;;;;;7.13;77.06;99575.36;103544;1303;24245;-28
2022/05/05 03:54:03;;;;;;;19.80;10.20;;;;;;;7.23;76.79;99577.36;103488;1303;23603;-24
2022/05/05 03:56:31;;;;;;;15.70;10.90;;;;;;;7.24;76.70;99577.30;103522;1303;23746;-28
2022/05/05 03:59:01;;;;;;;20.30;11.30;;;;;;;7.39;76.87;99577.70;103509;1303;24297;-28
2022/05/05 04:01:30;;;;;;;11.70;6.60;;;;;;;7.67;76.67;99575.55;103528;1303;22496;-25
2022/05/05 04:03:59;;;;;;;10.40;7.40;;;;;;;7.94;76.23;99571.88;103577;1303;22808;-25
2022/05/05 04:06:28;;;;;;;19.80;9.60;;;;;;;8.09;75.70;99571.26;103566;1303;22497;-27
2022/05/05 04:08:58;;;;;;;11.40;9.10;;;;;;;8.10;75.23;99573.79;103590;1302;22864;-25
2022/05/05 04:11:27;;;;;;;18.00;7.90;;;;;;;8.20;75.25;99578.91;103532;1303;24973;-30
2022/05/05 04:13:55;;;;;;;12.40;8.60;;;;;;;8.44;74.75;99579.38;103576;1303;23746;-23
2022/05/05 04:16:24;;;;;;;12.20;8.70;;;;;;;8.55;74.25;99585.42;103323;1303;341478;-30
2022/05/05 04:18:53;;;;;;;13.00;8.00;;;;;;;8.44;73.81;99589.56;103501;1303;22502;-25
2022/05/05 04:21:22;;;;;;;10.30;7.10;;;;;;;8.35;73.74;99595.42;103577;1303;24298;-25
2022/05/05 04:23:52;;;;;;;9.20;6.80;;;;;;;8.31;73.83;99595.96;103556;1303;23808;-24
2022/05/05 04:26:21;;;;;;;22.70;7.10;;;;;;;8.29;73.73;99597.65;103573;1303;24996;-25
2022/05/05 04:28:50;;;;;;;16.70;8.00;;;;;;;8.24;73.98;99595.05;103566;1303;25018;-25
2022/05/05 04:31:19;;;;;;;12.90;7.40;;;;;;;8.22;74.32;99596.06;103597;1302;24250;-25
2022/05/05 04:33:48;;;;;;;11.10;8.20;;;;;;;8.26;74.46;99600.52;103536;1302;24259;-30
2022/05/05 04:36:17;;;;;;;12.10;8.20;;;;;;;8.38;74.05;99607.38;103635;1303;24217;-29
2022/05/05 04:38:46;;;;;;;13.90;9.80;;;;;;;8.54;74.04;99606.41;103567;1303;24303;-30
2022/05/05 04:41:15;;;;;;;14.50;8.40;;;;;;;8.94;73.97;99609.38;103550;1303;22495;-25
2022/05/05 04:43:44;;;;;;;13.30;8.60;;;;;;;9.40;73.13;99610.51;103582;1303;25136;-25
2022/05/05 04:46:13;;;;;;;20.60;9.20;;;;;;;9.83;72.85;99613.95;103601;1303;24286;-29
2022/05/05 04:48:42;;;;;;;15.30;8.20;;;;;;;10.24;72.03;99612.56;103532;1302;22744;-29
2022/05/05 04:51:11;;;;;;;13.10;7.90;;;;;;;10.60;71.20;99610.98;103570;1302;24304;-25
2022/05/05 04:53:40;;;;;;;11.30;7.20;;;;;;;10.91;70.14;99611.48;103585;1303;24213;-25
2022/05/05 04:56:10;;;;;;;17.30;8.30;;;;;;;11.17;69.29;99611.38;103568;1303;23872;-29
2022/05/05 04:58:39;;;;;;;10.60;7.80;;;;;;;11.44;69.31;99609.04;103506;1303;22949;-29
2022/05/05 05:01:08;;;;;;;8.90;7.10;;;;;;;11.63;68.07;99611.05;103529;1303;25190;-25
2022/05/05 05:03:39;;;;;;;11.50;8.10;;;;;;;11.83;67.35;99606.08;103509;1303;23133;-24
2022/05/05 05:06:09;;;;;;;12.40;8.80;;;;;;;12.04;67.51;99607.31;103611;1303;24924;-28
2022/05/05 05:08:38;;;;;;;15.70;8.70;;;;;;;12.32;67.24;99610.10;103565;1303;22825;-24
2022/05/05 05:11:07;;;;;;;16.40;10.20;;;;;;;12.52;66.29;99605.89;103539;1303;24397;-28
2022/05/05 05:13:36;;;;;;;24.10;8.70;;;;;;;12.75;66.64;99611.42;103512;1303;23616;-28
2022/05/05 05:16:06;;;;;;;24.00;8.30;;;;;;;12.88;65.04;99608.34;103332;1303;22625;-24
2022/05/05 05:18:35;;;;;;;11.90;7.50;;;;;;;13.03;65.18;99608.08;103500;1303;22721;-27
2022/05/05 05:21:04;;;;;;;11.70;8.00;;;;;;;13.17;65.05;99609.23;103572;1301;23643;-23
2022/05/05 05:23:33;;;;;;;12.80;9.20;;;;;;;13.43;65.40;99612.71;103563;1303;22498;-28
2022/05/05 05:26:02;;;;;;;15.80;8.70;;;;;;;13.73;65.55;99614.02;103549;1303;22906;-29
2022/05/05 05:28:31;;;;;;;15.00;9.70;;;;;;;13.96;64.49;99611.87;103602;1302;24237;-29
2022/05/05 05:31:00;;;;;;;27.50;8.90;;;;;;;14.17;64.03;99612.25;103538;1303;23766;-25
2022/05/05 05:33:29;;;;;;;11.90;7.70;;;;;;;14.25;63.03;99611.02;103372;1303;24246;-24
2022/05/05 05:35:58;;;;;;;12.60;9.00;;;;;;;14.39;62.86;99616.54;103583;1303;23747;-30
2022/05/05 05:38:27;;;;;;;15.40;9.20;;;;;;;14.47;61.98;99619.14;103580;1303;22628;-30
2022/05/05 05:40:56;;;;;;;11.20;8.90;;;;;;;14.76;62.99;99612.85;103554;1302;24211;-29
2022/05/05 05:43:25;;;;;;;11.50;8.80;;;;;;;14.97;62.21;99613.75;103550;1303;24246;-26
2022/05/05 05:45:54;;;;;;;14.70;10.00;;;;;;;15.24;62.32;99612.73;103484;1303;22643;-29
2022/05/05 05:48:23;;;;;;;12.30;9.20;;;;;;;15.36;61.72;99610.52;103560;1303;23755;-25
2022/05/05 05:50:52;;;;;;;21.40;11.40;;;;;;;15.59;61.28;99610.05;103506;1303;24461;-29
2022/05/05 05:53:21;;;;;;;21.80;9.60;;;;;;;15.77;60.44;99612.73;103489;1303;22531;-25
2022/05/05 05:55:50;;;;;;;15.60;10.50;;;;;;;16.06;60.42;99613.23;103590;1302;22728;-24
2022/05/05 05:58:19;;;;;;;15.40;9.00;;;;;;;16.35;59.75;99616.79;103551;1303;24347;-29
2022/05/05 06:00:48;;;;;;;11.60;9.70;;;;;;;16.52;59.24;99616.64;103560;1303;24999;-29
2022/05/05 06:06:05;;;;;;;14.20;9.40;;;;;;;17.04;57.37;99613.80;103569;1303;23630;-30
2022/05/05 06:08:35;;;;;;;13.20;9.20;;;;;;;17.13;54.68;99617.33;103592;1303;23782;-27
2022/05/05 06:11:04;;;;;;;13.10;8.90;;;;;;;17.32;54.79;99614.83;103534;1303;22502;-25
2022/05/05 06:13:33;;;;;;;13.90;10.10;;;;;;;17.59;56.03;99617.75;103551;1303;23588;-28
2022/05/05 06:16:04;;;;;;;16.60;10.30;;;;;;;17.90;55.17;99620.91;103717;1303;23603;-28
2022/05/05 06:18:36;;;;;;;15.20;10.20;;;;;;;18.20;54.56;99617.13;103319;1301;23809;-28
2022/05/05 06:21:05;;;;;;;16.00;10.60;;;;;;;18.37;53.41;99620.08;103654;1302;22606;-27
2022/05/05 06:23:37;;;;;;;15.40;9.80;;;;;;;18.45;54.05;99616.26;103573;1303;22508;-26
2022/05/05 06:26:06;;;;;;;16.70;9.80;;;;;;;18.57;52.41;99617.45;103569;1303;25098;-29
2022/05/05 06:28:35;;;;;;;13.50;8.10;;;;;;;18.51;51.78;99617.58;103605;1303;23799;-28
2022/05/05 06:31:05;;;;;;;15.00;9.60;;;;;;;18.58;51.92;99620.63;103328;1303;22502;-28
2022/05/05 06:33:34;;;;;;;14.60;9.10;;;;;;;18.43;52.21;99622.09;103518;1303;22609;-25
2022/05/05 06:36:03;;;;;;;12.10;9.00;;;;;;;18.74;51.57;99624.96;103575;1303;22623;-28
2022/05/05 06:38:32;;;;;;;12.10;8.80;;;;;;;19.08;51.81;99625.34;103566;1303;23543;-25
2022/05/05 06:41:01;;;;;;;18.80;10.00;;;;;;;19.26;51.71;99625.81;103592;1302;22507;-28
2022/05/05 06:43:30;;;;;;;16.70;10.10;;;;;;;19.36;50.36;99626.30;103586;1303;22635;-28
2022/05/05 06:45:59;;;;;;;13.40;9.20;;;;;;;19.23;50.24;99625.17;103569;1302;23874;-28
2022/05/05 06:48:28;;;;;;;13.10;8.30;;;;;;;19.44;50.02;99625.83;103422;1303;24976;-31
2022/05/05 06:50:57;;;;;;;10.40;7.30;;;;;;;19.81;49.61;99624.74;103548;1303;24989;-27
2022/05/05 06:53:26;;;;;;;11.50;8.30;;;;;;;20.04;48.96;99629.98;103573;1303;24297;-28
2022/05/05 06:55:58;;;;;;;10.50;7.70;;;;;;;19.89;48.85;99631.20;103519;1303;22506;-25
2022/05/05 06:58:27;;;;;;;9.10;7.90;;;;;;;20.02;48.81;99631.68;103586;1303;24303;-24
2022/05/05 07:03:28;;;;;;;11.90;6.90;;;;;;;20.12;49.49;99627.19;103531;1303;23520;-25
2022/05/05 07:05:58;;;;;;;8.60;6.30;;;;;;;20.47;48.26;99630.05;103606;1303;24362;-28
2022/05/05 07:08:27;;;;;;;7.80;5.10;;;;;;;20.81;47.22;99632.67;103542;1303;25207;-29
2022/05/05 07:10:57;;;;;;;6.90;6.00;;;;;;;20.72;47.39;99633.45;103524;1303;24497;-28
2022/05/05 07:13:26;;;;;;;11.20;5.90;;;;;;;20.82;47.37;99632.02;103519;1303;25109;-24
2022/05/05 07:15:55;;;;;;;8.80;5.30;;;;;;;21.25;46.41;99629.45;103583;1303;24983;-28
2022/05/05 07:18:24;;;;;;;5.80;5.00;;;;;;;21.50;46.79;99629.62;103606;1303;23538;-24
2022/05/05 07:20:53;;;;;;;12.20;6.10;;;;;;;21.75;46.10;99625.90;103496;1303;24983;-24
2022/05/05 07:23:22;;;;;;;9.50;6.20;;;;;;;22.01;45.63;99627.18;103619;1303;23631;-30
2022/05/05 07:25:51;;;;;;;15.60;5.00;;;;;;;22.28;45.02;99633.13;103603;1302;22505;-25
2022/05/05 07:28:20;;;;;;;5.80;3.70;;;;;;;22.29;44.05;99631.16;103582;1303;24280;-29
2022/05/05 07:30:50;;;;;;;5.90;4.00;;;;;;;22.49;44.27;99631.94;103561;1303;23736;-28
2022/05/05 07:33:21;;;;;;;3.60;3.00;;;;;;;22.69;43.77;99629.03;103614;1303;25231;-28
2022/05/05 07:35:50;;;;;;;6.20;3.50;;;;;;;23.03;42.68;99626.80;103597;1303;25221;-29
2022/05/05 07:38:19;;;;;;;4.50;3.80;;;;;;;23.02;42.41;99628.45;103547;1303;23600;-28
2022/05/05 07:40:48;;;;;;;4.50;3.30;;;;;;;23.08;41.83;99626.48;103526;1303;24307;-24
2022/05/05 07:43:17;;;;;;;6.20;3.90;;;;;;;23.36;41.90;99623.41;103583;1303;23945;-28
2022/05/05 07:45:46;;;;;;;10.60;3.00;;;;;;;23.62;41.20;99619.44;103378;1303;24271;-28
2022/05/05 07:48:15;;;;;;;6.60;3.50;;;;;;;23.84;40.49;99620.29;103536;1303;25006;-24
2022/05/05 07:50:46;;;;;;;4.70;2.60;;;;;;;23.90;39.29;99621.30;103602;1303;23609;-27
2022/05/05 07:53:15;;;;;;;4.60;3.90;;;;;;;23.95;39.46;99622.88;103588;1303;23596;-28
2022/05/05 07:55:44;;;;;;;10.90;4.30;;;;;;;23.96;38.22;99619.64;103495;1302;24189;-24
2022/05/05 07:58:13;;;;;;;4.80;3.50;;;;;;;24.00;38.10;99620.06;103403;1303;22500;-26
2022/05/05 08:00:42;;;;;;;5.70;3.60;;;;;;;24.20;38.00;99624.88;103586;1303;23785;-24
2022/05/05 08:03:13;;;;;;;3.60;3.10;;;;;;;24.15;37.41;99627.25;103534;1303;22497;-24
2022/05/05 08:05:42;;;;;;;5.10;4.00;;;;;;;24.15;37.63;99630.42;103350;1303;23735;-28
2022/05/05 08:08:11;;;;;;;3.80;3.40;;;;;;;24.38;37.56;99625.95;103556;1303;24323;-24
2022/05/05 08:10:40;;;;;;;4.20;3.50;;;;;;;24.58;37.29;99624.98;103546;1303;22762;-24
2022/05/05 08:13:09;;;;;;;4.20;3.50;;;;;;;24.65;36.71;99630.60;103552;1303;23355;-24
2022/05/05 08:15:38;;;;;;;3.30;3.00;;;;;;;24.64;36.44;99628.23;103529;1303;25016;-25
2022/05/05 08:18:07;;;;;;;5.00;3.60;;;;;;;24.79;36.75;99627.50;103578;1303;23789;-28
2022/05/05 08:20:36;;;;;;;4.30;3.60;;;;;;;25.04;36.64;99625.40;103508;1303;22499;-28
2022/05/05 08:23:05;;;;;;;4.60;4.00;;;;;;;25.14;35.34;99622.20;103604;1303;22499;-28
2022/05/05 08:30:39;;;;;;;3.40;3.20;;;;;;;25.52;34.43;99625.23;103626;1303;24002;-28
2022/05/05 08:33:08;;;;;;;4.10;3.30;;;;;;;25.49;33.50;99624.45;103553;1300;24334;-28
2022/05/05 08:35:38;;;;;;;3.40;2.60;;;;;;;25.47;33.74;99630.93;103506;1302;22504;-28
2022/05/05 08:38:07;;;;;;;4.50;3.40;;;;;;;25.44;33.92;99628.88;103442;1303;24236;-24
2022/05/05 08:40:39;;;;;;;3.50;3.10;;;;;;;25.65;33.13;99625.77;103398;1303;24566;-28
2022/05/05 08:43:08;;;;;;;3.60;3.30;;;;;;;25.89;32.13;99627.63;103594;1303;22505;-24
2022/05/05 08:45:37;;;;;;;4.50;3.40;;;;;;;26.04;31.84;99623.75;103587;1303;22626;-28
2022/05/05 08:48:08;;;;;;;7.30;3.70;;;;;;;26.17;32.33;99625.52;103489;1303;22492;-28
2022/05/05 08:50:38;;;;;;;6.10;3.20;;;;;;;26.38;31.96;99622.57;103586;1303;26293;-24
2022/05/05 08:53:07;;;;;;;8.00;3.70;;;;;;;26.32;31.70;99621.76;103513;1303;23757;-28
2022/05/05 08:55:36;;;;;;;3.30;3.10;;;;;;;26.46;31.63;99619.48;103575;1303;22758;-28
2022/05/05 08:58:06;;;;;;;9.80;5.40;;;;;;;26.21;32.20;99620.35;103587;1303;22623;-24
2022/05/05 09:00:36;;;;;;;4.70;3.30;;;;;;;26.37;31.67;99620.43;103559;1303;24410;-25
2022/05/05 09:03:08;;;;;;;3.60;3.30;;;;;;;26.67;30.91;99621.85;103657;1301;23163;-28
2022/05/05 09:05:41;;;;;;;;;;;;;;;26.66;30.43;99621.60;103797;1303;22855;-26
2022/05/05 09:08:11;;;;;;;12.60;2.90;;;;;;;26.70;30.49;99621.53;103641;1303;25381;-29
2022/05/05 09:10:44;;;;;;;5.80;3.70;;;;;;;26.72;29.43;99624.27;103560;1303;25002;-28
2022/05/05 09:13:14;;;;;;;3.90;3.10;;;;;;;26.70;30.13;99620.72;103636;1303;26176;-28
2022/05/05 09:15:43;;;;;;;2.70;2.40;;;;;;;26.53;30.23;99624.26;104174;1303;24192;-24
2022/05/05 09:18:12;;;;;;;3.50;2.30;;;;;;;26.63;30.16;99630.41;104454;1303;22604;-25
2022/05/05 09:20:42;;;;;;;3.60;3.10;;;;;;;26.96;29.86;99631.56;103561;1303;22506;-25
2022/05/05 09:23:18;;;;;;;2.90;2.70;;;;;;;27.01;29.30;99627.85;103539;1302;22592;-24
2022/05/05 09:25:48;;;;;;;4.10;2.90;;;;;;;27.15;29.57;99627.15;103553;1303;22526;-24
2022/05/05 09:28:20;;;;;;;3.10;2.80;;;;;;;27.07;29.24;99626.73;103627;1302;24246;-28
2022/05/05 09:30:50;;;;;;;5.70;3.10;;;;;;;27.20;28.75;99627.35;103435;1302;23897;-25
2022/05/05 09:33:26;;;;;;;3.90;2.70;;;;;;;27.16;29.46;99634.91;103625;1303;24973;-25
2022/05/05 09:35:56;;;;;;;9.30;3.70;;;;;;;27.25;29.25;99628.98;103810;1303;24311;-29
2022/05/05 09:38:50;;;;;;;2.90;2.70;;;;;;;27.22;29.29;99630.57;103663;1303;24354;-25
2022/05/05 09:41:22;;;;;;;4.20;2.60;;;;;;;27.32;29.03;99625.43;103601;1303;24307;-25
2022/05/05 09:43:53;;;;;;;2.90;2.30;;;;;;;27.30;28.17;99625.30;103572;1303;23954;-24
2022/05/05 09:46:22;;;;;;;2.60;1.80;;;;;;;27.77;26.72;99616.47;103604;1303;22499;-29
2022/05/05 09:48:52;;;;;;;2.70;2.30;;;;;;;27.51;27.63;99622.46;103486;1303;22632;-24
2022/05/05 09:51:21;;;;;;;2.80;2.50;;;;;;;27.91;28.32;99617.20;103541;1303;24229;-24
2022/05/05 09:58:57;;;;;;;4.00;3.40;;;;;;;28.18;28.00;99615.68;103535;1303;24300;-25
2022/05/05 10:01:31;;;;;;;5.40;3.30;;;;;;;28.02;28.03;99614.73;103560;1303;23601;-24
2022/05/05 10:04:00;;;;;;;4.20;3.10;;;;;;;28.04;27.92;99610.42;103516;1303;24234;-25
2022/05/05 10:06:31;;;;;;;8.80;3.50;;;;;;;27.49;28.32;99614.42;103580;1303;24249;-24
2022/05/05 10:09:02;;;;;;;2.90;2.60;;;;;;;27.00;28.78;99613.52;103586;1303;24363;-24
2022/05/05 10:11:31;;;;;;;2.80;2.50;;;;;;;26.37;30.46;99616.19;103601;1303;22908;-28
2022/05/05 10:14:01;;;;;;;4.70;2.60;;;;;;;26.33;30.40;99615.08;103571;1303;22503;-28
2022/05/05 10:16:31;;;;;;;3.60;2.40;;;;;;;26.23;30.52;99614.02;103526;1303;23596;-28
2022/05/05 10:19:01;;;;;;;3.70;3.40;;;;;;;26.08;31.13;99610.71;103418;1303;25220;-24
2022/05/05 10:21:33;;;;;;;4.20;3.80;;;;;;;26.08;31.73;99607.42;103554;1303;24298;-28
2022/05/05 10:24:03;;;;;;;3.30;3.10;;;;;;;25.49;32.25;99608.86;103670;1303;24420;-28
2022/05/05 10:26:32;;;;;;;5.00;2.80;;;;;;;24.78;33.12;99607.55;103559;1303;22878;-24
2022/05/05 10:29:02;;;;;;;3.00;2.40;;;;;;;24.52;33.15;99610.15;103584;1303;24234;-24
2022/05/05 10:31:31;;;;;;;3.80;3.40;;;;;;;24.21;33.70;99607.46;103507;1303;24208;-28
2022/05/05 10:34:02;;;;;;;3.80;3.30;;;;;;;24.09;33.99;99607.85;103554;1303;24301;-28
2022/05/05 10:36:32;;;;;;;3.00;2.60;;;;;;;24.12;34.26;99605.96;103737;1303;23609;-28
2022/05/05 10:39:08;;;;;;;4.10;3.60;;;;;;;24.60;34.04;99601.63;103616;1303;22505;-25
2022/05/05 10:41:39;;;;;;;2.60;2.40;;;;;;;25.02;33.08;99597.44;103550;1303;23527;-29
2022/05/05 10:44:14;;;;;;;5.40;3.20;;;;;;;24.96;33.41;99600.67;103545;1302;26286;-25
2022/05/05 10:46:51;;;;;;;3.20;2.90;;;;;;;24.75;32.81;99595.43;103493;1303;22501;-25
2022/05/05 10:49:39;;;;;;;4.20;3.20;;;;;;;24.15;33.30;99601.13;103547;1303;25088;-24
2022/05/05 10:52:10;;;;;;;3.60;3.10;;;;;;;23.86;34.24;99594.05;103603;1303;24288;-24
2022/05/05 10:54:41;;;;;;;2.40;2.30;;;;;;;23.57;34.74;99594.77;103539;1303;23799;-24
2022/05/05 10:57:17;;;;;;;3.00;2.00;;;;;;;23.67;34.91;99593.95;103547;1303;25095;-28
2022/05/05 10:59:53;;;;;;;2.90;2.50;;;;;;;23.99;34.73;99591.86;103557;1303;23716;-24
2022/05/05 11:02:22;;;;;;;2.70;2.10;;;;;;;24.12;34.12;99589.88;103530;1303;23999;-24
2022/05/05 11:04:51;;;;;;;2.30;2.00;;;;;;;24.15;33.68;99590.31;103548;1303;24213;-24
2022/05/05 11:07:25;;;;;;;3.60;2.50;;;;;;;24.18;33.83;99590.02;103639;1303;24210;-24
2022/05/05 11:09:54;;;;;;;3.50;1.70;;;;;;;24.56;34.00;99585.98;103568;1303;22510;-28
2022/05/05 11:12:24;;;;;;;3.00;2.50;;;;;;;25.00;33.79;99581.61;103503;1303;22626;-24
2022/05/05 11:22:31;;;;;;;2.50;1.80;;;;;;;26.68;30.90;99571.61;103614;1303;24295;-28
2022/05/05 11:25:00;;;;;;;2.90;1.50;;;;;;;26.85;30.69;99570.65;103420;1303;24383;-24
2022/05/05 11:27:29;;;;;;;3.50;2.30;;;;;;;26.84;30.42;99569.40;103384;1303;24361;-24
2022/05/05 11:29:59;;;;;;;10.50;2.30;;;;;;;26.30;30.55;99569.23;103535;1303;24210;-27
2022/05/05 11:32:29;;;;;;;3.20;1.80;;;;;;;25.35;31.67;99567.11;103503;1302;23586;-23
2022/05/05 11:34:59;;;;;;;3.70;1.80;;;;;;;24.38;32.87;99570.71;103908;1303;23946;-27
2022/05/05 11:37:30;;;;;;;2.90;1.60;;;;;;;24.18;33.75;99572.63;103495;1303;24333;-24
2022/05/05 11:40:00;;;;;;;5.00;2.30;;;;;;;24.37;33.45;99566.23;103533;1303;22503;-24
2022/05/05 11:42:29;;;;;;;4.10;1.90;;;;;;;24.44;33.32;99562.52;103516;1303;24279;-24
2022/05/05 11:44:58;;;;;;;3.60;2.60;;;;;;;24.28;33.60;99566.92;103502;1303;24219;-25
2022/05/05 11:47:27;;;;;;;11.70;2.70;;;;;;;24.12;34.10;99567.39;103523;1303;24100;-24
2022/05/05 11:49:59;;;;;;;2.40;2.20;;;;;;;24.20;33.84;99566.69;103502;1303;24208;-24
2022/05/05 11:52:28;;;;;;;2.90;1.50;;;;;;;24.16;33.36;99567.48;103409;1302;24214;-24
2022/05/05 11:54:58;;;;;;;2.90;1.80;;;;;;;23.99;33.61;99560.27;103528;1303;22872;-28
2022/05/05 11:57:32;;;;;;;2.90;1.80;;;;;;;23.93;33.58;99553.80;103539;1303;22511;-24
2022/05/05 12:02:33;;;;;;;3.10;2.00;;;;;;;23.30;34.93;99560.27;103511;1303;24254;-24
2022/05/05 12:05:03;;;;;;;6.00;2.20;;;;;;;23.15;35.47;99554.05;103633;1303;22768;-24
2022/05/05 12:07:32;;;;;;;2.20;2.00;;;;;;;22.96;36.11;99554.92;103649;1303;22606;-25
2022/05/05 12:10:06;;;;;;;1.90;1.70;;;;;;;22.92;36.46;99553.82;103625;1302;24336;-25